Photometre #855[NE_1.6_Dp] Loftus_MO AOT

File : 20220826_855.hum

26/08/2022,06:02:28,TEMP=12.6,BA=5.64,STAT.A,ExtBa=12.20
26/08/2022,06:06:53,TEMP=12.9,BA=5.64,STAT.A,ExtBa=12.20
26/08/2022,06:12:02,TEMP=13.0,BA=5.64,STAT.A,ExtBa=12.20
26/08/2022,06:18:26,TEMP=13.1,BA=5.64,STAT.A,ExtBa=12.20
26/08/2022,06:25:28,TEMP=13.1,BA=5.60,STAT.A,ExtBa=12.20
26/08/2022,06:34:28,TEMP=13.3,BA=5.64,STAT.A,ExtBa=12.20
26/08/2022,06:39:23,TEMP=13.7,BA=5.64,STAT.D,ExtBa=12.20
26/08/2022,06:42:23,TEMP=14.1,BA=5.64,STAT.D,ExtBa=12.20
26/08/2022,06:45:45,TEMP=14.4,BA=5.64,STAT.B,ExtBa=12.20
26/08/2022,06:54:26,TEMP=15.2,BA=5.60,STAT.A,ExtBa=12.10
26/08/2022,06:57:09,TEMP=15.1,BA=5.60,STAT.A,ExtBa=12.10
26/08/2022,07:03:55,TEMP=15.0,BA=5.64,STAT.A,ExtBa=12.20
26/08/2022,07:11:36,TEMP=15.1,BA=5.64,STAT.A,ExtBa=12.20
26/08/2022,07:15:23,TEMP=15.4,BA=5.64,STAT.D,ExtBa=12.10
26/08/2022,07:18:23,TEMP=15.6,BA=5.64,STAT.D,ExtBa=12.10
26/08/2022,07:20:23,TEMP=16.0,BA=5.64,STAT.C,ExtBa=12.10
26/08/2022,07:44:16,TEMP=17.3,BA=5.60,STAT.b=10.0
26/08/2022,07:45:15,TEMP=17.4,BA=5.60,STAT.A,ExtBa=12.10
26/08/2022,07:48:32,TEMP=17.3,BA=5.60,STAT.A,ExtBa=12.10
26/08/2022,07:51:23,TEMP=17.4,BA=5.60,STAT.D,ExtBa=12.10
26/08/2022,07:56:52,TEMP=17.0,BA=5.60,STAT.A,ExtBa=12.10
26/08/2022,08:09:23,TEMP=16.1,BA=5.64,STAT.D,ExtBa=12.10
26/08/2022,08:12:23,TEMP=16.3,BA=5.60,STAT.D,ExtBa=12.10
26/08/2022,08:14:27,TEMP=16.6,BA=5.60,STAT.A,ExtBa=12.10
26/08/2022,08:18:23,TEMP=16.3,BA=5.60,STAT.D,ExtBa=12.10
26/08/2022,08:21:23,TEMP=16.5,BA=5.64,STAT.D,ExtBa=12.10
26/08/2022,08:24:23,TEMP=16.7,BA=5.64,STAT.D,ExtBa=12.10
26/08/2022,08:27:23,TEMP=16.8,BA=5.64,STAT.D,ExtBa=12.10
26/08/2022,08:30:23,TEMP=17.0,BA=5.64,STAT.D,ExtBa=12.10
26/08/2022,08:33:23,TEMP=17.2,BA=5.64,STAT.D,ExtBa=12.10
26/08/2022,08:36:23,TEMP=17.5,BA=5.64,STAT.D,ExtBa=12.10
26/08/2022,08:38:31,TEMP=18.1,BA=5.64,STAT.B,ExtBa=12.10
26/08/2022,08:48:33,TEMP=19.2,BA=5.56,STAT.b=10.0
26/08/2022,08:50:59,TEMP=19.0,BA=5.64,STAT.D,ExtBa=12.10
26/08/2022,08:54:24,TEMP=19.1,BA=5.64,STAT.D,ExtBa=12.10
26/08/2022,08:57:24,TEMP=19.3,BA=5.64,STAT.D,ExtBa=12.10
26/08/2022,09:00:24,TEMP=19.5,BA=5.64,STAT.D,ExtBa=12.10
26/08/2022,09:03:24,TEMP=19.6,BA=5.64,STAT.D,ExtBa=12.10
26/08/2022,09:06:01,TEMP=19.8,BA=5.64,STAT.F,ExtBa=12.10
26/08/2022,09:29:37,TEMP=20.5,BA=5.56,STAT.b=11.0
26/08/2022,09:30:12,TEMP=20.5,BA=5.56,STAT.b=11.0
26/08/2022,09:33:23,TEMP=20.0,BA=5.56,STAT.D,ExtBa=12.10
26/08/2022,09:36:00,TEMP=20.2,BA=5.56,STAT.D,ExtBa=12.10
26/08/2022,09:39:24,TEMP=20.0,BA=5.56,STAT.D,ExtBa=12.10
26/08/2022,09:42:24,TEMP=20.1,BA=5.56,STAT.D,ExtBa=12.10
26/08/2022,09:45:24,TEMP=20.1,BA=5.56,STAT.D,ExtBa=12.10
26/08/2022,09:48:24,TEMP=20.1,BA=5.56,STAT.D,ExtBa=12.10
26/08/2022,09:51:00,TEMP=20.2,BA=5.60,STAT.D,ExtBa=12.10
26/08/2022,10:35:42,TEMP=21.4,BA=5.56,STAT.b=11.0
26/08/2022,10:40:27,TEMP=21.0,BA=5.56,STAT.D,ExtBa=12.00
26/08/2022,10:45:24,TEMP=21.1,BA=5.56,STAT.D,ExtBa=12.10
26/08/2022,10:48:24,TEMP=21.3,BA=5.56,STAT.D,ExtBa=12.00
26/08/2022,10:51:00,TEMP=21.5,BA=5.56,STAT.D,ExtBa=12.00
26/08/2022,10:54:24,TEMP=21.5,BA=5.56,STAT.D,ExtBa=12.10
26/08/2022,10:57:24,TEMP=21.6,BA=5.56,STAT.D,ExtBa=12.10
26/08/2022,11:00:24,TEMP=21.7,BA=5.64,STAT.D,ExtBa=12.10
26/08/2022,11:03:24,TEMP=21.6,BA=5.64,STAT.D,ExtBa=12.10
26/08/2022,11:06:02,TEMP=21.7,BA=5.64,STAT.F,ExtBa=12.10
26/08/2022,11:30:48,TEMP=22.6,BA=5.52,STAT.b=11.0
26/08/2022,11:31:06,TEMP=22.6,BA=5.52,STAT.b=11.0
26/08/2022,11:33:23,TEMP=22.3,BA=5.52,STAT.D,ExtBa=12.00
26/08/2022,11:36:00,TEMP=22.4,BA=5.52,STAT.D,ExtBa=12.10
26/08/2022,11:39:24,TEMP=22.3,BA=5.52,STAT.D,ExtBa=12.10
26/08/2022,11:42:24,TEMP=22.4,BA=5.52,STAT.D,ExtBa=12.10
26/08/2022,11:45:24,TEMP=22.4,BA=5.52,STAT.D,ExtBa=12.10
26/08/2022,11:48:24,TEMP=22.5,BA=5.52,STAT.D,ExtBa=12.10
26/08/2022,11:51:00,TEMP=22.6,BA=5.52,STAT.D,ExtBa=12.10
26/08/2022,11:54:24,TEMP=22.5,BA=5.52,STAT.D,ExtBa=12.10
26/08/2022,11:57:24,TEMP=22.6,BA=5.52,STAT.D,ExtBa=12.10
26/08/2022,12:00:24,TEMP=22.5,BA=5.60,STAT.D,ExtBa=12.10
26/08/2022,12:03:24,TEMP=22.5,BA=5.60,STAT.D,ExtBa=12.00
26/08/2022,12:06:02,TEMP=22.5,BA=5.60,STAT.F,ExtBa=12.10
26/08/2022,12:32:00,TEMP=22.5,BA=5.52,STAT.D,ExtBa=12.00
26/08/2022,12:36:00,TEMP=22.3,BA=5.52,STAT.D,ExtBa=12.00
26/08/2022,12:39:24,TEMP=22.2,BA=5.52,STAT.D,ExtBa=12.00
26/08/2022,12:42:24,TEMP=22.0,BA=5.52,STAT.D,ExtBa=12.00
26/08/2022,12:45:24,TEMP=21.9,BA=5.52,STAT.D,ExtBa=12.00
26/08/2022,12:48:24,TEMP=21.6,BA=5.52,STAT.D,ExtBa=12.10
26/08/2022,12:51:00,TEMP=21.6,BA=5.52,STAT.D,ExtBa=12.00
26/08/2022,12:54:24,TEMP=21.5,BA=5.52,STAT.D,ExtBa=12.00
26/08/2022,12:57:24,TEMP=21.4,BA=5.52,STAT.D,ExtBa=12.00
26/08/2022,13:00:24,TEMP=21.5,BA=5.60,STAT.D,ExtBa=12.00
26/08/2022,13:03:24,TEMP=21.5,BA=5.60,STAT.D,ExtBa=12.10
26/08/2022,13:06:02,TEMP=21.6,BA=5.60,STAT.F,ExtBa=12.00
26/08/2022,13:31:22,TEMP=21.5,BA=5.52,STAT.D,ExtBa=12.00
26/08/2022,13:36:00,TEMP=21.0,BA=5.52,STAT.D,ExtBa=12.00
26/08/2022,13:39:24,TEMP=20.9,BA=5.52,STAT.D,ExtBa=12.00
26/08/2022,13:42:24,TEMP=20.9,BA=5.52,STAT.D,ExtBa=12.00
26/08/2022,13:45:24,TEMP=20.9,BA=5.52,STAT.D,ExtBa=12.00
26/08/2022,13:48:24,TEMP=20.9,BA=5.52,STAT.D,ExtBa=12.00
26/08/2022,13:51:00,TEMP=20.9,BA=5.56,STAT.D,ExtBa=12.00
26/08/2022,13:54:24,TEMP=20.6,BA=5.56,STAT.D,ExtBa=12.00
26/08/2022,13:57:24,TEMP=20.4,BA=5.56,STAT.D,ExtBa=12.00
26/08/2022,14:00:24,TEMP=20.4,BA=5.60,STAT.D,ExtBa=12.00
26/08/2022,14:03:24,TEMP=20.4,BA=5.60,STAT.D,ExtBa=12.00
26/08/2022,14:06:02,TEMP=20.6,BA=5.60,STAT.F,ExtBa=12.00
26/08/2022,14:31:35,TEMP=21.1,BA=5.52,STAT.D,ExtBa=12.00
26/08/2022,14:36:00,TEMP=20.5,BA=5.52,STAT.D,ExtBa=12.00
26/08/2022,14:39:24,TEMP=20.5,BA=5.52,STAT.D,ExtBa=12.00
26/08/2022,14:42:24,TEMP=20.6,BA=5.52,STAT.D,ExtBa=12.00
26/08/2022,14:45:24,TEMP=20.6,BA=5.52,STAT.D,ExtBa=12.00
26/08/2022,14:48:24,TEMP=20.7,BA=5.52,STAT.D,ExtBa=12.00
26/08/2022,14:51:00,TEMP=20.7,BA=5.52,STAT.D,ExtBa=12.00
26/08/2022,14:54:24,TEMP=20.5,BA=5.52,STAT.D,ExtBa=12.00
26/08/2022,14:57:24,TEMP=20.5,BA=5.52,STAT.D,ExtBa=12.00
26/08/2022,15:00:24,TEMP=20.4,BA=5.60,STAT.D,ExtBa=12.00
26/08/2022,15:03:24,TEMP=20.4,BA=5.60,STAT.D,ExtBa=12.00
26/08/2022,15:06:03,TEMP=20.5,BA=5.60,STAT.F,ExtBa=12.00
26/08/2022,15:30:23,TEMP=21.4,BA=5.52,STAT.D,ExtBa=12.00
26/08/2022,15:35:17,TEMP=20.8,BA=5.52,STAT.B,ExtBa=12.00
26/08/2022,15:45:23,TEMP=20.6,BA=5.52,STAT.D,ExtBa=12.00
26/08/2022,15:48:23,TEMP=20.6,BA=5.52,STAT.D,ExtBa=12.00
26/08/2022,15:51:23,TEMP=20.5,BA=5.56,STAT.D,ExtBa=12.00
26/08/2022,15:54:23,TEMP=20.4,BA=5.56,STAT.D,ExtBa=12.00
26/08/2022,15:57:23,TEMP=20.2,BA=5.56,STAT.D,ExtBa=12.00
26/08/2022,15:59:23,TEMP=20.5,BA=5.56,STAT.A,ExtBa=12.00
26/08/2022,16:03:23,TEMP=20.1,BA=5.52,STAT.D,ExtBa=12.00
26/08/2022,16:06:23,TEMP=20.1,BA=5.52,STAT.D,ExtBa=12.00
26/08/2022,16:09:23,TEMP=20.1,BA=5.52,STAT.D,ExtBa=12.00
26/08/2022,16:12:23,TEMP=20.1,BA=5.52,STAT.D,ExtBa=12.00
26/08/2022,16:15:10,TEMP=20.1,BA=5.52,STAT.A,ExtBa=12.00
26/08/2022,16:18:23,TEMP=20.0,BA=5.52,STAT.D,ExtBa=12.00
26/08/2022,16:21:23,TEMP=20.0,BA=5.56,STAT.D,ExtBa=12.00
26/08/2022,16:24:23,TEMP=20.0,BA=5.56,STAT.D,ExtBa=12.00
26/08/2022,16:27:23,TEMP=19.9,BA=5.56,STAT.D,ExtBa=12.00
26/08/2022,16:29:30,TEMP=20.2,BA=5.56,STAT.A,ExtBa=12.00
26/08/2022,16:33:23,TEMP=19.9,BA=5.52,STAT.D,ExtBa=12.00
26/08/2022,16:36:23,TEMP=20.0,BA=5.52,STAT.D,ExtBa=12.00
26/08/2022,16:39:23,TEMP=20.0,BA=5.52,STAT.D,ExtBa=12.00
26/08/2022,16:41:28,TEMP=20.2,BA=5.52,STAT.A,ExtBa=12.00
26/08/2022,16:45:23,TEMP=19.8,BA=5.52,STAT.D,ExtBa=12.00
26/08/2022,16:48:23,TEMP=19.8,BA=5.52,STAT.D,ExtBa=12.00
26/08/2022,16:51:23,TEMP=19.8,BA=5.52,STAT.D,ExtBa=12.00
26/08/2022,16:53:26,TEMP=20.0,BA=5.52,STAT.C,ExtBa=12.00
26/08/2022,17:17:21,TEMP=19.6,BA=5.52,STAT.A,ExtBa=12.00
26/08/2022,17:22:55,TEMP=19.2,BA=5.48,STAT.A,ExtBa=12.00
26/08/2022,17:25:07,TEMP=19.1,BA=5.48,STAT.A,ExtBa=12.00
26/08/2022,17:27:17,TEMP=18.9,BA=5.48,STAT.B,ExtBa=12.00
26/08/2022,17:37:32,TEMP=18.0,BA=5.48,STAT.A,ExtBa=12.00
26/08/2022,17:42:23,TEMP=17.6,BA=5.60,STAT.D,ExtBa=12.00
26/08/2022,17:45:22,TEMP=17.6,BA=5.60,STAT.D,ExtBa=12.00
26/08/2022,17:47:26,TEMP=17.7,BA=5.60,STAT.A,ExtBa=12.00
26/08/2022,17:53:52,TEMP=16.9,BA=5.60,STAT.A,ExtBa=12.00
26/08/2022,17:59:58,TEMP=16.5,BA=5.60,STAT.A,ExtBa=12.00
26/08/2022,18:05:07,TEMP=16.3,BA=5.52,STAT.A,ExtBa=12.00
26/08/2022,18:09:32,TEMP=16.2,BA=5.52,STAT.A,ExtBa=12.00